Time;durP1;ratioP1;P1;durP2;ratioP2;P2;SDS_P1;SDS_P2;PMS_P1;PMS_P2;Temp;Humidity;BMP_temperature;BMP_pressure;BME280_temperature;BME280_humidity;BME280_pressure;Samples;Min_cycle;Max_cycle;Signal;HPM_P1;HPM_P2
2022/06/10 00:00:37;;;;;;;4.85;2.05;;;;;;;22.47;47.25;101764.75;4973899;28;20393;-47
2022/06/10 00:03:06;;;;;;;4.18;2.30;;;;;;;22.46;47.18;101760.38;4990537;28;20400;-50
2022/06/10 00:05:36;;;;;;;2.85;1.90;;;;;;;22.48;47.34;101768.28;4974475;28;20401;-50
2022/06/10 00:08:07;;;;;;;3.03;1.90;;;;;;;22.46;47.33;101768.25;4991968;28;20479;-50
2022/06/10 00:10:40;;;;;;;3.27;2.00;;;;;;;22.46;47.24;101776.13;4990824;28;20892;-47
2022/06/10 00:13:08;;;;;;;3.60;2.20;;;;;;;22.44;47.39;101777.81;5010320;28;20397;-48
2022/06/10 00:15:36;;;;;;;3.88;1.90;;;;;;;22.46;47.53;101781.38;5030244;28;20869;-46
2022/06/10 00:18:02;;;;;;;2.67;1.90;;;;;;;22.45;47.25;101779.59;5030273;28;20861;-44
2022/06/10 00:20:31;;;;;;;3.30;1.80;;;;;;;22.46;47.56;101781.38;5013259;28;20420;-50
2022/06/10 00:22:57;;;;;;;3.03;1.85;;;;;;;22.46;47.25;101773.50;5013015;28;20484;-49
2022/06/10 00:25:23;;;;;;;3.22;2.10;;;;;;;22.45;47.27;101779.59;5012872;28;20464;-54
2022/06/10 00:27:49;;;;;;;3.10;1.90;;;;;;;22.44;47.23;101783.06;5030542;28;20416;-53
2022/06/10 00:30:23;;;;;;;3.70;2.07;;;;;;;22.44;47.22;101783.06;5013004;28;20397;-49
2022/06/10 00:32:48;;;;;;;2.88;2.03;;;;;;;22.43;47.48;101770.78;5012695;28;20389;-46
2022/06/10 00:35:14;;;;;;;3.45;2.10;;;;;;;22.45;47.01;101784.84;5029517;28;20381;-48
2022/06/10 00:37:42;;;;;;;4.17;2.20;;;;;;;22.45;47.66;101779.59;5014482;28;20396;-45
2022/06/10 00:40:32;;;;;;;3.85;2.10;;;;;;;22.45;47.50;101773.47;5017364;28;20369;-48
2022/06/10 00:42:58;;;;;;;3.30;2.00;;;;;;;22.42;47.24;101779.50;5033879;28;20819;-48
2022/06/10 00:45:51;;;;;;;3.93;2.00;;;;;;;22.44;47.28;101772.56;5017633;28;20381;-45
2022/06/10 00:48:26;;;;;;;3.60;2.00;;;;;;;22.44;47.22;101777.81;5034875;28;20865;-52
2022/06/10 00:50:55;;;;;;;4.35;1.80;;;;;;;22.45;47.21;101782.22;5034024;28;20397;-47
2022/06/10 00:53:24;;;;;;;4.05;2.10;;;;;;;22.44;46.97;101783.06;5033607;28;20889;-50
2022/06/10 00:55:54;;;;;;;2.97;2.05;;;;;;;22.45;47.21;101789.22;5033966;28;20464;-47
2022/06/10 00:58:26;;;;;;;3.50;1.90;;;;;;;22.44;47.50;101797.94;5033776;28;20421;-46
2022/06/10 01:00:53;;;;;;;3.50;2.10;;;;;;;22.44;47.36;101798.78;5033554;28;20385;-52
2022/06/10 01:03:25;;;;;;;4.28;2.00;;;;;;;22.41;46.99;101792.63;5033227;28;20377;-50
2022/06/10 01:05:53;;;;;;;3.33;1.98;;;;;;;22.42;47.43;101795.25;5033863;28;20390;-53
2022/06/10 01:08:25;;;;;;;3.17;1.92;;;;;;;22.44;47.15;101793.53;5033738;28;20392;-45
2022/06/10 01:11:25;;;;;;;2.40;1.80;;;;;;;22.43;47.32;101797.03;5033560;28;20816;-47
2022/06/10 01:13:57;;;;;;;3.35;2.20;;;;;;;22.42;47.20;101789.16;5033444;28;20381;-46
2022/06/10 01:16:44;;;;;;;4.72;2.50;;;;;;;22.45;47.25;101800.59;5013628;28;20446;-46
2022/06/10 01:19:43;;;;;;;3.80;2.00;;;;;;;22.44;47.39;101793.53;5015112;28;20385;-46
2022/06/10 01:22:30;;;;;;;3.90;2.08;;;;;;;22.44;47.08;101798.78;5015006;28;20387;-45
2022/06/10 01:25:12;;;;;;;3.28;1.92;;;;;;;22.43;47.15;101802.28;5013431;28;20422;-48
2022/06/10 01:28:05;;;;;;;3.80;2.20;;;;;;;22.43;47.32;101804.91;5030355;28;20389;-50
2022/06/10 01:30:36;;;;;;;3.58;2.05;;;;;;;22.38;46.73;101788.19;5034371;28;20451;-47
2022/06/10 01:33:07;;;;;;;4.38;1.88;;;;;;;22.43;47.04;101802.28;5033020;28;20385;-46
2022/06/10 01:36:00;;;;;;;4.72;2.40;;;;;;;22.43;47.30;101807.53;5033069;28;20381;-50
2022/06/10 01:38:49;;;;;;;3.92;2.00;;;;;;;22.43;47.13;101802.28;5034466;28;20798;-46
2022/06/10 01:41:33;;;;;;;2.95;1.92;;;;;;;22.38;47.14;101793.44;5016339;28;20878;-52
2022/06/10 01:44:26;;;;;;;4.22;2.30;;;;;;;22.43;47.22;101802.28;5034345;28;20361;-50
2022/06/10 01:46:57;;;;;;;3.45;1.88;;;;;;;22.42;47.33;101805.75;5032571;28;20480;-47
2022/06/10 01:49:30;;;;;;;3.67;2.17;;;;;;;22.40;47.12;101804.84;5031527;28;20484;-47
2022/06/10 01:52:20;;;;;;;4.03;2.00;;;;;;;22.42;47.08;101811.00;5032843;28;20381;-49
2022/06/10 01:54:52;;;;;;;4.15;2.05;;;;;;;22.40;47.28;101810.09;5016065;28;20905;-46
2022/06/10 01:57:31;;;;;;;3.65;2.00;;;;;;;22.36;46.95;101800.41;5015835;28;20389;-48
2022/06/10 02:00:07;;;;;;;3.47;2.08;;;;;;;22.40;46.73;101817.97;5032870;28;20404;-51
2022/06/10 02:02:36;;;;;;;3.78;1.90;;;;;;;22.35;46.81;101803.00;5016080;28;20386;-46
2022/06/10 02:05:09;;;;;;;3.88;2.20;;;;;;;22.40;46.99;101810.09;5015774;28;20400;-49
2022/06/10 02:07:40;;;;;;;3.78;2.20;;;;;;;22.40;46.97;101812.72;5031756;28;20376;-48
2022/06/10 02:10:14;;;;;;;5.13;2.35;;;;;;;22.38;46.69;101809.19;5033305;28;20389;-45
2022/06/10 02:12:43;;;;;;;3.05;1.88;;;;;;;22.41;47.40;101813.63;5015373;28;20365;-46
2022/06/10 02:15:15;;;;;;;2.80;1.77;;;;;;;22.37;47.13;101817.91;5031926;28;20427;-46
2022/06/10 02:17:49;;;;;;;3.73;1.90;;;;;;;22.41;46.99;101824.13;5029408;28;20384;-47
2022/06/10 02:20:21;;;;;;;3.30;1.90;;;;;;;22.32;46.99;101819.56;4995757;28;20395;-50
2022/06/10 02:22:50;;;;;;;2.78;2.00;;;;;;;22.40;46.86;101824.97;4996370;28;20403;-48
2022/06/10 02:25:23;;;;;;;3.38;1.85;;;;;;;22.41;47.13;101826.75;5011780;28;20379;-53
2022/06/10 02:27:52;;;;;;;3.08;2.00;;;;;;;22.40;47.05;101823.22;4995970;28;20442;-45
2022/06/10 02:30:19;;;;;;;3.35;2.08;;;;;;;22.39;46.88;101818.81;5013309;28;20391;-52
2022/06/10 02:32:48;;;;;;;3.47;2.10;;;;;;;22.40;47.19;101817.97;5013475;28;20394;-49
2022/06/10 02:35:18;;;;;;;4.18;1.98;;;;;;;22.40;46.62;101825.84;5012153;28;20394;-44
2022/06/10 02:38:09;;;;;;;3.30;1.98;;;;;;;22.40;47.05;101824.97;5012092;28;20491;-50
2022/06/10 02:40:40;;;;;;;4.13;2.40;;;;;;;22.39;46.83;101831.94;5013264;28;20461;-47
2022/06/10 02:43:34;;;;;;;2.88;1.80;;;;;;;22.41;46.75;101830.25;5012376;28;20402;-48
2022/06/10 02:46:05;;;;;;;4.22;1.90;;;;;;;22.40;46.76;101833.72;4995853;28;20395;-45
2022/06/10 02:49:08;;;;;;;3.22;2.10;;;;;;;22.37;46.92;101836.28;5012053;28;20453;-45
2022/06/10 02:51:35;;;;;;;4.50;1.98;;;;;;;22.37;46.88;101828.41;4996774;28;20383;-50
2022/06/10 02:54:04;;;;;;;4.22;2.20;;;;;;;22.39;46.86;101836.34;5011994;28;20402;-50
2022/06/10 02:56:29;;;;;;;2.53;1.80;;;;;;;22.37;46.80;101838.91;5011927;28;20382;-45
2022/06/10 03:02:00;;;;;;;3.47;1.73;;;;;;;22.39;46.75;101847.69;5012085;28;20863;-45
2022/06/10 03:04:37;;;;;;;2.67;2.00;;;;;;;22.40;46.91;101849.47;5012787;28;20733;-52
2022/06/10 03:07:22;;;;;;;3.70;2.08;;;;;;;22.38;46.58;101845.06;5012830;28;20870;-45
2022/06/10 03:09:50;;;;;;;3.85;2.58;;;;;;;22.39;46.50;101842.44;5012567;28;20430;-51
2022/06/10 03:12:28;;;;;;;3.45;2.30;;;;;;;22.38;46.77;101848.56;5011572;28;20910;-47
2022/06/10 03:15:05;;;;;;;4.97;2.22;;;;;;;22.40;46.81;101854.72;4995134;28;20382;-45
2022/06/10 03:17:47;;;;;;;4.45;2.00;;;;;;;22.38;46.87;101851.19;5011464;28;20390;-48
2022/06/10 03:20:29;;;;;;;3.28;2.00;;;;;;;22.38;46.71;101856.44;4994811;28;20486;-45
2022/06/10 03:23:13;;;;;;;4.13;2.07;;;;;;;22.38;46.71;101856.44;5011176;28;20390;-48
2022/06/10 03:25:55;;;;;;;2.75;1.85;;;;;;;22.39;46.60;101852.94;5012189;28;20371;-47
2022/06/10 03:28:42;;;;;;;3.25;1.98;;;;;;;22.39;46.56;101858.19;4993764;28;20398;-48
2022/06/10 03:31:32;;;;;;;2.83;1.90;;;;;;;22.37;46.62;101859.91;5007075;28;20415;-51
2022/06/10 03:34:29;;;;;;;4.15;2.10;;;;;;;22.35;46.85;101856.38;5010772;28;20402;-46
2022/06/10 03:36:57;;;;;;;4.72;2.38;;;;;;;22.38;46.82;101861.69;5010989;28;20394;-46
2022/06/10 03:39:26;;;;;;;3.05;1.88;;;;;;;22.38;46.58;101856.44;4994186;28;20894;-46
2022/06/10 03:41:58;;;;;;;2.67;1.88;;;;;;;22.40;46.69;101859.09;5010999;28;20879;-44
2022/06/10 03:44:27;;;;;;;2.95;1.85;;;;;;;22.38;46.68;101856.44;5011640;28;20372;-47
2022/06/10 03:46:53;;;;;;;4.05;2.00;;;;;;;22.39;46.58;101863.44;5010380;28;20466;-46
2022/06/10 03:49:21;;;;;;;3.88;2.10;;;;;;;22.38;46.66;101856.44;5010303;28;20916;-45
2022/06/10 03:51:47;;;;;;;4.32;2.30;;;;;;;22.34;46.59;101849.34;4994226;28;20495;-50
2022/06/10 03:54:18;;;;;;;3.72;2.00;;;;;;;22.39;46.72;101860.81;5010124;28;20986;-46
2022/06/10 03:56:46;;;;;;;4.03;2.15;;;;;;;22.40;46.44;101865.22;5009970;28;20383;-49
2022/06/10 03:59:12;;;;;;;3.85;2.00;;;;;;;22.40;46.79;101864.34;5016543;28;20391;-51
2022/06/10 04:01:40;;;;;;;2.63;1.83;;;;;;;22.40;46.67;101864.34;5010439;28;20406;-50
2022/06/10 04:04:08;;;;;;;3.70;2.15;;;;;;;22.40;46.91;101867.84;4993976;28;20390;-50
2022/06/10 04:06:34;;;;;;;3.70;2.20;;;;;;;22.40;46.85;101865.22;5010436;28;20477;-44
2022/06/10 04:09:02;;;;;;;3.97;2.50;;;;;;;22.40;46.59;101870.47;5010944;28;20537;-48
2022/06/10 04:11:28;;;;;;;2.92;2.00;;;;;;;22.43;46.91;101870.53;5011199;28;20379;-48
2022/06/10 04:13:53;;;;;;;3.60;2.07;;;;;;;22.44;46.63;101871.44;5010470;28;20393;-48
2022/06/10 04:16:21;;;;;;;4.30;2.30;;;;;;;22.46;46.46;101870.63;5010450;28;20383;-45
2022/06/10 04:18:49;;;;;;;3.33;2.10;;;;;;;22.45;46.21;101874.09;5010425;28;20387;-51
2022/06/10 04:21:15;;;;;;;3.72;2.05;;;;;;;22.45;46.35;101874.09;5002870;28;20388;-49
2022/06/10 04:23:40;;;;;;;4.35;2.30;;;;;;;22.44;46.33;101867.03;4974487;28;20395;-45
2022/06/10 04:26:06;;;;;;;3.73;2.30;;;;;;;22.38;46.64;101872.19;4990935;28;20377;-49
2022/06/10 04:28:34;;;;;;;3.83;2.17;;;;;;;22.44;46.46;101882.78;4990939;28;20467;-46
2022/06/10 04:31:02;;;;;;;3.77;1.93;;;;;;;22.46;46.96;101881.13;4990735;28;20968;-46
2022/06/10 04:33:31;;;;;;;3.90;2.03;;;;;;;22.45;46.32;101884.59;4990850;28;20373;-47
2022/06/10 04:35:56;;;;;;;4.13;2.00;;;;;;;22.45;46.72;101874.09;4991937;28;20377;-48
2022/06/10 04:38:22;;;;;;;4.13;2.40;;;;;;;22.45;46.67;101879.34;4974304;28;20467;-47
2022/06/10 04:40:48;;;;;;;3.83;2.05;;;;;;;22.46;46.49;101881.13;4990395;28;20377;-50
2022/06/10 04:43:14;;;;;;;3.27;2.00;;;;;;;22.46;46.52;101881.13;4990614;28;20753;-45
2022/06/10 04:45:47;;;;;;;4.28;2.00;;;;;;;22.43;46.72;101881.03;4990917;28;20419;-50
2022/06/10 04:48:13;;;;;;;5.30;2.30;;;;;;;22.45;46.39;101884.59;4990636;28;20389;-47
2022/06/10 04:50:48;;;;;;;3.58;2.00;;;;;;;22.47;46.99;101887.28;4990657;28;20762;-48
2022/06/10 04:53:23;;;;;;;3.10;1.92;;;;;;;22.49;46.76;101887.28;4990674;28;20377;-50
2022/06/10 04:55:49;;;;;;;4.13;2.20;;;;;;;22.47;46.22;101885.50;4990422;28;20384;-45
2022/06/10 04:58:15;;;;;;;4.20;2.30;;;;;;;22.49;46.31;101892.53;4991930;28;20470;-51
2022/06/10 05:00:47;;;;;;;3.13;2.05;;;;;;;22.50;46.56;101897.81;4974284;28;20380;-47
2022/06/10 05:03:19;;;;;;;3.42;2.10;;;;;;;22.51;46.74;101898.69;4991706;28;20854;-48
2022/06/10 05:05:50;;;;;;;4.18;2.28;;;;;;;22.50;46.56;101891.69;4973990;28;20381;-51
2022/06/10 05:08:18;;;;;;;3.45;1.92;;;;;;;22.50;46.75;101896.94;4990296;28;20393;-48
2022/06/10 05:10:47;;;;;;;3.78;2.17;;;;;;;22.53;46.77;101902.25;4991539;28;20404;-48
2022/06/10 05:13:17;;;;;;;3.55;2.03;;;;;;;22.53;46.88;101907.47;4990307;28;20431;-50
2022/06/10 05:15:46;;;;;;;4.07;2.28;;;;;;;22.51;46.53;101901.31;4990527;28;20381;-46
2022/06/10 05:18:15;;;;;;;3.83;2.25;;;;;;;22.51;46.72;101903.94;4990168;28;20841;-46
2022/06/10 05:20:41;;;;;;;4.10;2.38;;;;;;;22.42;46.70;101897.63;4990354;28;20381;-48
2022/06/10 05:23:11;;;;;;;4.45;2.30;;;;;;;22.55;46.58;101913.66;5029965;23;20428;-51
2022/06/10 05:25:37;;;;;;;3.55;1.98;;;;;;;22.54;46.71;101909.25;5032885;28;20850;-53
2022/06/10 05:28:04;;;;;;;4.18;2.40;;;;;;;22.55;46.26;101916.28;5034045;28;20416;-55
2022/06/10 05:30:31;;;;;;;3.47;2.00;;;;;;;22.55;46.82;101913.66;5030375;28;20412;-54
2022/06/10 05:32:57;;;;;;;2.55;2.20;;;;;;;22.55;46.76;101917.19;5016366;28;20865;-54
2022/06/10 05:35:22;;;;;;;3.17;2.17;;;;;;;22.55;46.96;101911.03;5016567;28;20753;-51
2022/06/10 05:37:51;;;;;;;3.40;2.00;;;;;;;22.50;46.76;101907.44;5016159;28;20378;-55
2022/06/10 05:40:18;;;;;;;4.35;2.20;;;;;;;22.56;46.63;101918.94;5032664;28;20729;-53
2022/06/10 05:42:46;;;;;;;3.53;2.20;;;;;;;22.52;46.38;101903.09;5016202;28;20399;-53
2022/06/10 05:45:14;;;;;;;4.00;2.00;;;;;;;22.57;46.42;101925.06;5016179;28;20742;-54
2022/06/10 05:47:40;;;;;;;4.20;2.13;;;;;;;22.57;46.71;101919.81;5014346;28;20394;-57
2022/06/10 05:50:13;;;;;;;4.22;2.53;;;;;;;22.57;46.82;101919.81;5032382;28;20480;-54
2022/06/10 05:52:41;;;;;;;4.37;2.50;;;;;;;22.57;46.76;101919.81;5013583;28;20498;-55
2022/06/10 05:55:07;;;;;;;3.70;1.80;;;;;;;22.58;46.62;101921.59;5019713;28;20726;-55
2022/06/10 05:57:33;;;;;;;2.95;2.00;;;;;;;22.58;46.57;101930.38;5025314;28;20389;-54
2022/06/10 05:59:58;;;;;;;3.38;2.00;;;;;;;22.58;46.34;101921.59;5030526;28;20382;-56
2022/06/10 06:02:25;;;;;;;4.57;2.53;;;;;;;22.59;46.37;101920.72;5012389;28;20445;-56
2022/06/10 06:04:51;;;;;;;3.78;2.10;;;;;;;22.58;46.39;101921.59;5010713;28;20382;-59
2022/06/10 06:07:22;;;;;;;4.00;2.20;;;;;;;22.58;46.67;101933.00;5021570;28;20451;-57
2022/06/10 06:09:48;;;;;;;3.30;2.00;;;;;;;22.60;46.45;101930.38;5005854;28;20752;-57
2022/06/10 06:12:17;;;;;;;5.03;2.30;;;;;;;22.59;46.86;101928.59;5017659;28;20407;-51
2022/06/10 06:14:42;;;;;;;2.90;1.85;;;;;;;22.62;46.74;101933.91;5028286;28;20813;-54
2022/06/10 06:17:10;;;;;;;3.63;1.90;;;;;;;22.61;46.95;101937.41;5015726;28;20392;-56
2022/06/10 06:19:36;;;;;;;4.55;2.00;;;;;;;22.61;46.68;101934.78;5032109;28;20456;-55
2022/06/10 06:22:04;;;;;;;4.03;2.20;;;;;;;22.61;46.48;101943.56;5031734;28;20425;-55
2022/06/10 06:24:30;;;;;;;3.25;1.83;;;;;;;22.63;46.60;101935.69;5033469;28;20397;-54
2022/06/10 06:26:55;;;;;;;3.40;2.00;;;;;;;22.61;46.72;101933.06;5032421;28;20878;-57
2022/06/10 06:29:23;;;;;;;3.47;2.07;;;;;;;22.60;46.27;101935.63;5034183;28;20385;-56
2022/06/10 06:31:50;;;;;;;3.30;2.00;;;;;;;22.64;46.53;101936.59;5025898;28;20475;-57
2022/06/10 06:34:16;;;;;;;4.20;2.10;;;;;;;22.61;46.19;101942.66;5015783;28;20388;-55
2022/06/10 06:36:45;;;;;;;2.87;1.80;;;;;;;22.63;46.76;101940.94;5037376;28;21096;-54
2022/06/10 06:39:13;;;;;;;4.15;2.17;;;;;;;22.64;46.41;101942.72;5031574;28;20410;-56
2022/06/10 06:41:38;;;;;;;5.80;2.33;;;;;;;22.44;46.51;101914.28;5031036;28;20395;-57
2022/06/10 06:44:05;;;;;;;4.32;2.00;;;;;;;22.63;46.57;101946.19;5036177;28;20385;-56
2022/06/10 06:46:33;;;;;;;4.88;2.08;;;;;;;22.60;46.19;101933.00;5028224;28;20742;-56
2022/06/10 06:48:58;;;;;;;5.83;2.40;;;;;;;22.62;46.44;101933.91;5027920;28;20386;-55
2022/06/10 06:51:24;;;;;;;4.00;2.10;;;;;;;22.59;45.90;101934.75;5001464;28;20388;-52
2022/06/10 06:53:51;;;;;;;4.03;1.93;;;;;;;22.63;46.44;101946.19;5044891;28;20409;-55
2022/06/10 06:56:17;;;;;;;3.33;1.88;;;;;;;22.62;46.17;101947.06;5029938;28;20995;-52
2022/06/10 06:58:42;;;;;;;5.72;2.50;;;;;;;22.64;46.10;101944.47;5030891;28;20476;-62
2022/06/10 07:01:08;;;;;;;7.07;2.40;;;;;;;22.66;46.53;101945.38;5009277;28;20430;-58
2022/06/10 07:03:33;;;;;;;6.27;2.30;;;;;;;22.57;46.66;101928.59;5025359;28;20778;-60
2022/06/10 07:05:58;;;;;;;5.00;2.20;;;;;;;22.65;46.66;101949.72;5024797;28;20458;-61
2022/06/10 07:08:31;;;;;;;5.67;2.70;;;;;;;22.61;46.48;101937.41;5023231;28;20387;-58
2022/06/10 07:10:58;;;;;;;5.60;2.40;;;;;;;22.67;46.54;101948.03;5008935;28;20721;-57
2022/06/10 07:13:24;;;;;;;5.90;2.67;;;;;;;22.67;46.32;101958.53;5009746;28;20391;-55
2022/06/10 07:15:52;;;;;;;4.38;2.20;;;;;;;22.69;46.07;101958.56;5025120;28;20377;-49
2022/06/10 07:18:20;;;;;;;6.35;2.50;;;;;;;22.73;45.88;101958.66;5027735;28;20390;-61
2022/06/10 07:20:45;;;;;;;7.32;2.58;;;;;;;22.73;45.77;101956.03;5011079;28;20394;-61
2022/06/10 07:23:14;;;;;;;5.82;2.30;;;;;;;22.77;45.49;101955.22;5010982;28;20383;-58
2022/06/10 07:25:39;;;;;;;6.63;2.20;;;;;;;22.80;45.34;101964.03;5027609;28;20471;-61
2022/06/10 07:28:08;;;;;;;5.70;2.67;;;;;;;22.81;45.59;101960.56;5027310;28;21123;-58
2022/06/10 07:30:35;;;;;;;6.97;2.67;;;;;;;22.75;45.65;101956.94;4994932;28;20481;-57
2022/06/10 07:33:00;;;;;;;7.63;3.00;;;;;;;22.80;45.58;101964.03;5010910;28;20489;-58
2022/06/10 07:35:32;;;;;;;6.03;2.30;;;;;;;22.79;45.36;101962.25;5027375;28;20505;-60
2022/06/10 07:38:00;;;;;;;5.03;2.10;;;;;;;22.76;45.59;101958.72;5027308;28;20835;-55
2022/06/10 07:43:13;;;;;;;6.15;2.35;;;;;;;22.75;45.13;101951.69;5024967;28;20369;-60
2022/06/10 07:45:39;;;;;;;5.87;2.30;;;;;;;22.73;44.90;101960.41;5010495;28;20856;-62
2022/06/10 07:48:05;;;;;;;6.37;2.20;;;;;;;22.63;44.94;101940.94;5009685;28;20379;-64
2022/06/10 07:50:32;;;;;;;7.35;3.20;;;;;;;22.64;44.57;101942.72;5014783;28;20428;-63
2022/06/10 07:52:57;;;;;;;8.02;2.35;;;;;;;22.66;44.71;101946.25;5030301;28;20452;-62
2022/06/10 07:55:23;;;;;;;7.23;2.27;;;;;;;22.67;44.93;101948.03;5041847;28;20454;-62
2022/06/10 07:57:49;;;;;;;7.20;2.45;;;;;;;22.64;44.09;101947.09;5026444;28;20890;-62
2022/06/10 08:00:15;;;;;;;7.43;3.00;;;;;;;22.61;43.83;101959.31;5023732;28;20386;-62
2022/06/10 08:02:41;;;;;;;5.65;2.13;;;;;;;22.56;43.48;101944.31;5036284;28;20476;-63
2022/06/10 08:05:08;;;;;;;9.37;2.63;;;;;;;22.58;43.73;101953.09;5029725;28;20422;-64
2022/06/10 08:07:37;;;;;;;5.68;2.20;;;;;;;22.61;43.57;101958.41;5007254;28;20436;-62
2022/06/10 08:10:03;;;;;;;5.53;2.00;;;;;;;22.59;43.54;101952.25;5021962;28;20423;-63
2022/06/10 08:12:29;;;;;;;6.93;2.50;;;;;;;22.55;43.25;101947.78;5020730;28;20389;-63
2022/06/10 08:14:54;;;;;;;6.30;2.13;;;;;;;22.53;43.39;101952.13;5028917;28;20403;-62
2022/06/10 08:17:19;;;;;;;6.53;2.33;;;;;;;22.58;43.18;101947.84;5038347;28;20376;-63
2022/06/10 08:19:45;;;;;;;7.38;2.70;;;;;;;22.47;43.01;101919.63;5017746;28;20384;-63
2022/06/10 08:24:54;;;;;;;6.73;2.63;;;;;;;22.61;42.43;101937.41;5037769;28;20380;-64
2022/06/10 08:27:19;;;;;;;8.00;2.20;;;;;;;22.62;43.02;101939.16;5030978;28;20388;-60
2022/06/10 08:29:45;;;;;;;5.47;2.20;;;;;;;22.58;42.41;101939.97;5045034;28;20400;-59
2022/06/10 08:32:10;;;;;;;6.43;2.20;;;;;;;22.56;42.14;101939.06;5037141;28;20388;-62
2022/06/10 08:34:36;;;;;;;5.63;2.10;;;;;;;22.55;42.58;101942.53;5047054;28;20410;-62
2022/06/10 08:37:02;;;;;;;7.03;2.30;;;;;;;22.54;41.95;101932.88;5033710;28;20380;-62
2022/06/10 08:39:30;;;;;;;6.90;2.37;;;;;;;22.54;42.21;101930.25;5012643;28;20889;-63
2022/06/10 08:42:14;;;;;;;6.60;1.95;;;;;;;22.53;41.65;101928.50;5013529;28;20725;-62
2022/06/10 08:44:53;;;;;;;6.00;2.13;;;;;;;22.53;41.53;101931.13;5030304;28;20399;-63
2022/06/10 08:47:27;;;;;;;6.20;2.40;;;;;;;22.51;41.49;101930.19;5006616;28;20455;-62
2022/06/10 08:49:59;;;;;;;5.78;2.20;;;;;;;22.55;41.53;101932.94;5025259;28;20870;-62
2022/06/10 08:52:50;;;;;;;6.28;2.30;;;;;;;22.56;41.20;101923.28;5035891;28;20445;-62
2022/06/10 08:55:37;;;;;;;5.20;2.15;;;;;;;22.61;41.67;101932.16;5018306;28;20389;-62
2022/06/10 08:58:10;;;;;;;4.47;2.03;;;;;;;22.61;41.17;101926.91;5032542;28;20411;-62
2022/06/10 09:00:40;;;;;;;5.75;2.13;;;;;;;22.62;41.58;101928.66;5035961;28;20385;-63
2022/06/10 09:03:20;;;;;;;4.05;2.40;;;;;;;22.58;41.17;101932.09;5023590;28;20395;-63
2022/06/10 09:05:46;;;;;;;6.57;2.50;;;;;;;22.58;41.27;101933.00;5026957;28;20770;-63
2022/06/10 09:08:34;;;;;;;6.40;2.10;;;;;;;22.56;40.96;101923.28;5041173;28;20400;-61
2022/06/10 09:11:14;;;;;;;5.57;2.20;;;;;;;22.54;41.27;101915.41;5034289;28;20401;-62
2022/06/10 09:14:04;;;;;;;7.03;2.10;;;;;;;22.56;40.47;101924.19;5029296;28;20510;-62
2022/06/10 09:16:30;;;;;;;5.63;2.00;;;;;;;22.57;40.89;101925.06;5046949;28;20410;-61
2022/06/10 09:19:10;;;;;;;4.68;2.10;;;;;;;22.60;41.45;101919.88;5052768;28;20383;-62
2022/06/10 09:21:44;;;;;;;6.10;2.20;;;;;;;22.63;41.05;101919.94;5037518;28;20377;-62
2022/06/10 09:24:34;;;;;;;6.28;2.22;;;;;;;22.64;41.47;101911.19;5046306;28;20387;-62
2022/06/10 09:27:24;;;;;;;7.43;2.40;;;;;;;22.57;41.51;101896.19;5035948;28;20389;-62
2022/06/10 09:29:51;;;;;;;6.30;2.30;;;;;;;22.61;40.76;101911.16;5043024;28;20570;-62
2022/06/10 09:32:20;;;;;;;5.07;2.17;;;;;;;22.67;41.03;101911.25;5032974;28;20373;-62
2022/06/10 09:35:04;;;;;;;5.60;2.33;;;;;;;22.69;41.14;101908.69;5016484;28;20515;-63
2022/06/10 09:37:49;;;;;;;7.07;2.45;;;;;;;22.68;40.88;101910.41;5049312;28;20459;-62
2022/06/10 09:40:38;;;;;;;7.95;2.40;;;;;;;22.70;41.43;101916.56;5031369;28;20389;-63
2022/06/10 09:43:27;;;;;;;5.97;2.40;;;;;;;22.70;40.38;101919.19;5026658;28;20394;-61
2022/06/10 09:46:26;;;;;;;5.78;2.30;;;;;;;22.68;41.02;101918.28;5016537;28;20438;-62
2022/06/10 09:49:12;;;;;;;8.48;3.10;;;;;;;22.44;40.74;101877.53;5044544;28;20387;-63
2022/06/10 09:51:47;;;;;;;9.82;2.63;;;;;;;22.70;40.50;101916.56;5050963;28;20939;-63
2022/06/10 09:54:40;;;;;;;8.15;2.63;;;;;;;22.69;41.07;101913.94;5030865;28;20390;-63
2022/06/10 09:57:09;;;;;;;6.90;2.53;;;;;;;22.70;40.27;101910.44;5032421;28;20408;-64
2022/06/10 09:59:46;;;;;;;7.47;2.50;;;;;;;22.69;40.58;101903.44;5028834;28;20744;-60
2022/06/10 10:02:27;;;;;;;6.70;2.47;;;;;;;22.66;39.75;101904.25;5033681;28;20511;-63
2022/06/10 10:05:14;;;;;;;8.73;2.92;;;;;;;22.63;40.48;101904.19;5034252;28;20833;-63
2022/06/10 10:07:50;;;;;;;6.45;2.40;;;;;;;22.49;39.82;101889.91;5032560;28;20374;-62
2022/06/10 10:10:21;;;;;;;9.10;3.33;;;;;;;22.60;39.82;101910.28;5015188;28;20409;-62
2022/06/10 10:13:29;;;;;;;6.85;2.70;;;;;;;22.57;39.65;101914.56;5032221;28;20427;-63
2022/06/10 10:16:10;;;;;;;6.78;2.75;;;;;;;22.54;39.44;101904.00;5033074;28;20697;-62
2022/06/10 10:18:58;;;;;;;8.05;2.53;;;;;;;22.37;40.23;101870.41;5032285;28;20928;-62
2022/06/10 10:21:31;;;;;;;6.32;2.40;;;;;;;22.59;39.96;101907.59;5032619;28;20389;-62
2022/06/10 10:23:58;;;;;;;6.97;2.60;;;;;;;22.62;40.01;101902.41;5033904;28;20846;-62
2022/06/10 10:26:26;;;;;;;7.18;2.60;;;;;;;22.51;40.13;101882.94;5015724;28;20425;-62
2022/06/10 10:28:58;;;;;;;5.80;2.40;;;;;;;22.47;40.29;101867.13;5033423;28;20427;-61
2022/06/10 10:31:26;;;;;;;8.85;2.50;;;;;;;22.71;40.00;101907.84;5031680;28;20940;-62
2022/06/10 10:33:52;;;;;;;6.72;2.50;;;;;;;22.74;40.56;101912.28;5015026;28;20381;-61
2022/06/10 10:36:38;;;;;;;11.55;3.47;;;;;;;22.74;40.29;101910.53;5014793;28;20391;-61
2022/06/10 10:39:25;;;;;;;9.63;2.90;;;;;;;22.76;40.22;101900.06;4999745;28;20594;-60
2022/06/10 10:41:52;;;;;;;7.75;2.63;;;;;;;22.75;40.46;101896.53;5011764;28;20669;-60
2022/06/10 10:44:33;;;;;;;8.43;2.47;;;;;;;22.81;40.10;101897.53;5010649;28;20458;-61
2022/06/10 10:47:09;;;;;;;8.30;2.30;;;;;;;22.82;40.35;101899.31;5010405;28;20382;-61
2022/06/10 10:49:37;;;;;;;6.13;2.70;;;;;;;22.81;40.20;101887.91;5010599;28;20407;-61
2022/06/10 10:52:18;;;;;;;7.28;2.55;;;;;;;22.85;40.74;101894.09;4995201;28;20382;-61
2022/06/10 10:54:45;;;;;;;8.30;2.67;;;;;;;22.85;40.45;101888.84;5011778;28;20386;-60
2022/06/10 10:57:21;;;;;;;7.20;2.20;;;;;;;22.86;40.27;101890.63;5011549;28;20866;-60
2022/06/10 11:00:30;;;;;;;7.70;2.47;;;;;;;22.73;40.26;101869.34;4995511;28;20415;-61
2022/06/10 11:03:01;;;;;;;5.13;2.35;;;;;;;22.88;40.56;101886.28;4971190;28;20382;-60
2022/06/10 11:05:36;;;;;;;4.70;2.58;;;;;;;22.87;40.73;101892.38;4971324;28;20430;-62
2022/06/10 11:08:05;;;;;;;9.82;2.63;;;;;;;22.87;40.41;101884.50;4969604;28;20742;-60
2022/06/10 11:10:30;;;;;;;6.10;2.30;;;;;;;22.85;40.58;101887.09;5011384;28;20399;-61
2022/06/10 11:13:01;;;;;;;7.05;2.15;;;;;;;22.86;41.40;101886.25;5011294;28;20891;-63
2022/06/10 11:15:31;;;;;;;7.57;2.45;;;;;;;22.87;41.46;101897.66;4994814;28;20390;-64
2022/06/10 11:17:58;;;;;;;8.82;2.47;;;;;;;22.87;41.31;101898.50;5011270;28;20433;-66
2022/06/10 11:20:30;;;;;;;14.07;3.60;;;;;;;22.87;41.78;101895.03;5011259;28;20436;-63
2022/06/10 11:25:27;;;;;;;11.60;2.67;;;;;;;22.83;41.88;101885.31;5048958;28;20416;-46
2022/06/10 11:28:00;;;;;;;5.28;2.30;;;;;;;22.90;42.02;101887.19;5034148;28;20379;-48
2022/06/10 11:30:49;;;;;;;9.32;2.72;;;;;;;22.93;40.82;101884.63;5034145;28;20868;-45
2022/06/10 11:33:29;;;;;;;9.65;2.45;;;;;;;22.94;41.44;101883.75;5034072;28;20382;-49
2022/06/10 11:36:02;;;;;;;8.35;2.53;;;;;;;22.95;41.24;101880.28;5016946;28;20471;-47
2022/06/10 11:38:29;;;;;;;6.20;2.40;;;;;;;22.93;42.41;101882.00;5014701;28;20410;-58
2022/06/10 11:41:00;;;;;;;5.35;2.03;;;;;;;22.98;43.74;101880.31;5012174;28;20745;-60
2022/06/10 11:43:35;;;;;;;5.28;2.17;;;;;;;23.07;44.67;101878.72;5005953;28;20921;-51
2022/06/10 11:46:12;;;;;;;8.30;2.60;;;;;;;23.11;44.80;101881.41;5046208;28;20881;-49
2022/06/10 11:48:55;;;;;;;6.82;2.80;;;;;;;23.11;44.54;101864.78;5036406;28;20884;-45
2022/06/10 11:51:29;;;;;;;7.82;3.20;;;;;;;23.14;43.02;101860.44;4994211;28;20398;-48
2022/06/10 11:54:12;;;;;;;4.15;2.42;;;;;;;23.12;41.74;101861.28;5030228;28;20378;-46
2022/06/10 12:00:24;;;;;;;6.40;2.70;;;;;;;23.18;43.41;101856.13;5016135;28;20920;-49
2022/06/10 12:03:17;;;;;;;5.40;2.20;;;;;;;23.14;42.69;101849.06;5013802;28;20420;-48